sensor_id;sensor_type;location;lat;lon;timestamp;P1;durP1;ratioP1;P2;durP2;ratioP2
71963;SDS011;59834;52.124;5.422;2024-02-26T00:00:30;1.42;;;0.60;;
71963;SDS011;59834;52.124;5.422;2024-02-26T00:02:57;3.53;;;0.90;;
71963;SDS011;59834;52.124;5.422;2024-02-26T00:05:24;4.80;;;1.10;;
71963;SDS011;59834;52.124;5.422;2024-02-26T00:07:50;2.40;;;1.08;;
71963;SDS011;59834;52.124;5.422;2024-02-26T00:10:17;4.03;;;1.03;;
71963;SDS011;59834;52.124;5.422;2024-02-26T00:12:43;2.08;;;1.20;;
71963;SDS011;59834;52.124;5.422;2024-02-26T00:15:10;2.95;;;1.10;;
71963;SDS011;59834;52.124;5.422;2024-02-26T00:17:37;2.08;;;1.08;;
71963;SDS011;59834;52.124;5.422;2024-02-26T00:20:04;2.53;;;1.20;;
71963;SDS011;59834;52.124;5.422;2024-02-26T00:22:35;3.73;;;1.43;;
71963;SDS011;59834;52.124;5.422;2024-02-26T00:25:02;2.72;;;1.35;;
71963;SDS011;59834;52.124;5.422;2024-02-26T00:27:28;2.80;;;1.20;;
71963;SDS011;59834;52.124;5.422;2024-02-26T00:29:55;3.60;;;1.30;;
71963;SDS011;59834;52.124;5.422;2024-02-26T00:32:21;2.28;;;1.40;;
71963;SDS011;59834;52.124;5.422;2024-02-26T00:34:48;3.67;;;1.50;;
71963;SDS011;59834;52.124;5.422;2024-02-26T00:37:15;3.05;;;1.45;;
71963;SDS011;59834;52.124;5.422;2024-02-26T00:39:41;3.28;;;1.77;;
71963;SDS011;59834;52.124;5.422;2024-02-26T00:42:08;2.80;;;1.42;;
71963;SDS011;59834;52.124;5.422;2024-02-26T00:44:34;4.38;;;1.58;;
71963;SDS011;59834;52.124;5.422;2024-02-26T00:47:01;5.53;;;1.60;;
71963;SDS011;59834;52.124;5.422;2024-02-26T00:49:28;2.08;;;1.20;;
71963;SDS011;59834;52.124;5.422;2024-02-26T00:51:55;3.70;;;2.08;;
71963;SDS011;59834;52.124;5.422;2024-02-26T00:54:22;3.60;;;1.88;;
71963;SDS011;59834;52.124;5.422;2024-02-26T00:56:49;3.17;;;1.27;;
71963;SDS011;59834;52.124;5.422;2024-02-26T00:59:15;2.10;;;1.33;;
71963;SDS011;59834;52.124;5.422;2024-02-26T01:01:42;2.67;;;1.98;;
71963;SDS011;59834;52.124;5.422;2024-02-26T01:04:09;3.03;;;1.48;;
71963;SDS011;59834;52.124;5.422;2024-02-26T01:06:35;4.88;;;1.83;;
71963;SDS011;59834;52.124;5.422;2024-02-26T01:09:02;2.45;;;1.30;;
71963;SDS011;59834;52.124;5.422;2024-02-26T01:11:29;2.23;;;1.43;;
71963;SDS011;59834;52.124;5.422;2024-02-26T01:13:56;2.60;;;1.75;;
71963;SDS011;59834;52.124;5.422;2024-02-26T01:16:23;3.15;;;1.63;;
71963;SDS011;59834;52.124;5.422;2024-02-26T01:18:50;3.30;;;2.00;;
71963;SDS011;59834;52.124;5.422;2024-02-26T01:21:16;3.30;;;2.17;;
71963;SDS011;59834;52.124;5.422;2024-02-26T01:23:43;3.07;;;1.60;;
71963;SDS011;59834;52.124;5.422;2024-02-26T01:26:10;2.72;;;1.73;;
71963;SDS011;59834;52.124;5.422;2024-02-26T01:28:37;4.30;;;1.35;;
71963;SDS011;59834;52.124;5.422;2024-02-26T01:31:03;3.85;;;1.83;;
71963;SDS011;59834;52.124;5.422;2024-02-26T01:33:33;2.85;;;1.20;;
71963;SDS011;59834;52.124;5.422;2024-02-26T01:36:00;6.00;;;1.43;;
71963;SDS011;59834;52.124;5.422;2024-02-26T01:38:27;3.05;;;1.83;;
71963;SDS011;59834;52.124;5.422;2024-02-26T01:40:54;2.97;;;2.03;;
71963;SDS011;59834;52.124;5.422;2024-02-26T01:43:20;3.40;;;2.15;;
71963;SDS011;59834;52.124;5.422;2024-02-26T01:45:47;3.42;;;1.95;;
71963;SDS011;59834;52.124;5.422;2024-02-26T01:48:13;4.83;;;1.50;;
71963;SDS011;59834;52.124;5.422;2024-02-26T01:50:40;5.22;;;1.17;;
71963;SDS011;59834;52.124;5.422;2024-02-26T01:53:07;3.38;;;1.77;;
71963;SDS011;59834;52.124;5.422;2024-02-26T01:55:35;4.40;;;1.67;;
71963;SDS011;59834;52.124;5.422;2024-02-26T01:58:02;2.67;;;1.73;;
71963;SDS011;59834;52.124;5.422;2024-02-26T02:00:29;3.37;;;1.93;;
71963;SDS011;59834;52.124;5.422;2024-02-26T02:02:56;2.40;;;1.50;;
71963;SDS011;59834;52.124;5.422;2024-02-26T02:05:23;3.17;;;1.92;;
71963;SDS011;59834;52.124;5.422;2024-02-26T02:07:50;4.38;;;2.22;;
71963;SDS011;59834;52.124;5.422;2024-02-26T02:10:18;4.13;;;2.05;;
71963;SDS011;59834;52.124;5.422;2024-02-26T02:12:49;3.07;;;1.53;;
71963;SDS011;59834;52.124;5.422;2024-02-26T02:15:16;3.20;;;1.27;;
71963;SDS011;59834;52.124;5.422;2024-02-26T02:17:43;3.28;;;2.15;;
71963;SDS011;59834;52.124;5.422;2024-02-26T02:20:14;5.45;;;2.25;;
71963;SDS011;59834;52.124;5.422;2024-02-26T02:22:44;3.97;;;2.13;;
71963;SDS011;59834;52.124;5.422;2024-02-26T02:25:11;2.43;;;1.37;;
71963;SDS011;59834;52.124;5.422;2024-02-26T02:27:37;4.78;;;2.00;;
71963;SDS011;59834;52.124;5.422;2024-02-26T02:30:04;5.97;;;2.15;;
71963;SDS011;59834;52.124;5.422;2024-02-26T02:32:33;6.70;;;1.20;;
71963;SDS011;59834;52.124;5.422;2024-02-26T02:35:00;3.20;;;2.08;;
71963;SDS011;59834;52.124;5.422;2024-02-26T02:37:26;3.53;;;1.73;;
71963;SDS011;59834;52.124;5.422;2024-02-26T02:39:53;4.75;;;2.53;;
71963;SDS011;59834;52.124;5.422;2024-02-26T02:42:21;3.85;;;2.30;;
71963;SDS011;59834;52.124;5.422;2024-02-26T02:44:47;6.50;;;2.38;;
71963;SDS011;59834;52.124;5.422;2024-02-26T02:47:14;4.30;;;2.40;;
71963;SDS011;59834;52.124;5.422;2024-02-26T02:49:41;3.30;;;1.67;;
71963;SDS011;59834;52.124;5.422;2024-02-26T02:52:08;3.10;;;1.30;;
71963;SDS011;59834;52.124;5.422;2024-02-26T02:54:34;3.25;;;2.03;;
71963;SDS011;59834;52.124;5.422;2024-02-26T02:57:03;5.70;;;2.28;;
71963;SDS011;59834;52.124;5.422;2024-02-26T02:59:29;3.90;;;2.28;;
71963;SDS011;59834;52.124;5.422;2024-02-26T03:01:56;5.63;;;2.40;;
71963;SDS011;59834;52.124;5.422;2024-02-26T03:04:22;6.95;;;2.13;;
71963;SDS011;59834;52.124;5.422;2024-02-26T03:06:50;4.50;;;2.25;;
71963;SDS011;59834;52.124;5.422;2024-02-26T03:09:17;3.03;;;2.08;;
71963;SDS011;59834;52.124;5.422;2024-02-26T03:11:43;3.40;;;1.98;;
71963;SDS011;59834;52.124;5.422;2024-02-26T03:14:10;4.13;;;1.90;;
71963;SDS011;59834;52.124;5.422;2024-02-26T03:16:36;7.63;;;2.85;;
71963;SDS011;59834;52.124;5.422;2024-02-26T03:19:03;3.90;;;2.70;;
71963;SDS011;59834;52.124;5.422;2024-02-26T03:21:30;4.55;;;2.65;;
71963;SDS011;59834;52.124;5.422;2024-02-26T03:23:57;3.70;;;2.22;;
71963;SDS011;59834;52.124;5.422;2024-02-26T03:26:23;4.63;;;3.03;;
71963;SDS011;59834;52.124;5.422;2024-02-26T03:28:50;5.15;;;3.05;;
71963;SDS011;59834;52.124;5.422;2024-02-26T03:31:17;4.97;;;2.97;;
71963;SDS011;59834;52.124;5.422;2024-02-26T03:33:43;4.05;;;2.20;;
71963;SDS011;59834;52.124;5.422;2024-02-26T03:36:10;4.55;;;2.55;;
71963;SDS011;59834;52.124;5.422;2024-02-26T03:38:37;4.93;;;2.30;;
71963;SDS011;59834;52.124;5.422;2024-02-26T03:41:04;4.53;;;3.20;;
71963;SDS011;59834;52.124;5.422;2024-02-26T03:43:30;5.13;;;2.88;;
71963;SDS011;59834;52.124;5.422;2024-02-26T03:45:58;3.45;;;2.40;;
71963;SDS011;59834;52.124;5.422;2024-02-26T03:48:24;3.15;;;1.98;;
71963;SDS011;59834;52.124;5.422;2024-02-26T03:50:51;3.90;;;2.30;;
71963;SDS011;59834;52.124;5.422;2024-02-26T03:53:17;4.40;;;3.03;;
71963;SDS011;59834;52.124;5.422;2024-02-26T03:55:44;6.25;;;3.63;;
71963;SDS011;59834;52.124;5.422;2024-02-26T03:58:12;3.88;;;2.22;;
71963;SDS011;59834;52.124;5.422;2024-02-26T04:00:38;5.45;;;1.85;;
71963;SDS011;59834;52.124;5.422;2024-02-26T04:03:05;4.17;;;2.00;;
71963;SDS011;59834;52.124;5.422;2024-02-26T04:05:32;3.85;;;2.38;;
71963;SDS011;59834;52.124;5.422;2024-02-26T04:07:58;3.38;;;1.98;;
71963;SDS011;59834;52.124;5.422;2024-02-26T04:10:25;3.92;;;2.50;;
71963;SDS011;59834;52.124;5.422;2024-02-26T04:12:51;7.20;;;2.83;;
71963;SDS011;59834;52.124;5.422;2024-02-26T04:15:18;5.67;;;2.83;;
71963;SDS011;59834;52.124;5.422;2024-02-26T04:17:44;7.18;;;3.17;;
71963;SDS011;59834;52.124;5.422;2024-02-26T04:20:13;8.35;;;4.10;;
71963;SDS011;59834;52.124;5.422;2024-02-26T04:22:41;4.15;;;2.50;;
71963;SDS011;59834;52.124;5.422;2024-02-26T04:25:08;2.85;;;1.98;;
71963;SDS011;59834;52.124;5.422;2024-02-26T04:27:34;6.10;;;3.43;;
71963;SDS011;59834;52.124;5.422;2024-02-26T04:30:01;4.35;;;2.30;;
71963;SDS011;59834;52.124;5.422;2024-02-26T04:32:28;3.65;;;2.22;;
71963;SDS011;59834;52.124;5.422;2024-02-26T04:34:54;3.10;;;1.30;;
71963;SDS011;59834;52.124;5.422;2024-02-26T04:37:21;5.72;;;2.72;;
71963;SDS011;59834;52.124;5.422;2024-02-26T04:39:48;5.20;;;2.00;;
71963;SDS011;59834;52.124;5.422;2024-02-26T04:42:16;4.63;;;2.80;;
71963;SDS011;59834;52.124;5.422;2024-02-26T04:44:43;5.80;;;2.72;;
71963;SDS011;59834;52.124;5.422;2024-02-26T04:47:09;2.75;;;1.75;;
71963;SDS011;59834;52.124;5.422;2024-02-26T04:49:37;7.50;;;2.75;;
71963;SDS011;59834;52.124;5.422;2024-02-26T04:52:03;4.77;;;2.47;;
71963;SDS011;59834;52.124;5.422;2024-02-26T04:54:31;3.40;;;2.15;;
71963;SDS011;59834;52.124;5.422;2024-02-26T04:56:57;5.03;;;2.50;;
71963;SDS011;59834;52.124;5.422;2024-02-26T04:59:24;5.97;;;3.17;;
71963;SDS011;59834;52.124;5.422;2024-02-26T05:01:50;3.30;;;1.90;;
71963;SDS011;59834;52.124;5.422;2024-02-26T05:04:19;4.93;;;2.60;;
71963;SDS011;59834;52.124;5.422;2024-02-26T05:06:45;4.25;;;2.65;;
71963;SDS011;59834;52.124;5.422;2024-02-26T05:09:12;4.93;;;2.10;;
71963;SDS011;59834;52.124;5.422;2024-02-26T05:11:39;8.15;;;3.70;;
71963;SDS011;59834;52.124;5.422;2024-02-26T05:14:08;2.80;;;1.85;;
71963;SDS011;59834;52.124;5.422;2024-02-26T05:16:35;6.43;;;2.10;;
71963;SDS011;59834;52.124;5.422;2024-02-26T05:19:01;4.40;;;1.85;;
71963;SDS011;59834;52.124;5.422;2024-02-26T05:21:29;4.30;;;2.17;;
71963;SDS011;59834;52.124;5.422;2024-02-26T05:23:56;2.97;;;1.58;;
71963;SDS011;59834;52.124;5.422;2024-02-26T05:26:23;5.57;;;3.03;;
71963;SDS011;59834;52.124;5.422;2024-02-26T05:28:49;3.23;;;2.00;;
71963;SDS011;59834;52.124;5.422;2024-02-26T05:31:16;5.43;;;3.05;;
71963;SDS011;59834;52.124;5.422;2024-02-26T05:33:44;5.32;;;3.13;;
71963;SDS011;59834;52.124;5.422;2024-02-26T05:36:17;8.75;;;3.42;;
71963;SDS011;59834;52.124;5.422;2024-02-26T05:38:45;2.13;;;1.35;;
71963;SDS011;59834;52.124;5.422;2024-02-26T05:41:16;5.00;;;2.83;;
71963;SDS011;59834;52.124;5.422;2024-02-26T05:43:46;2.90;;;1.85;;
71963;SDS011;59834;52.124;5.422;2024-02-26T05:46:13;5.22;;;2.40;;
71963;SDS011;59834;52.124;5.422;2024-02-26T05:48:39;6.00;;;3.58;;
71963;SDS011;59834;52.124;5.422;2024-02-26T05:51:06;8.98;;;4.35;;
71963;SDS011;59834;52.124;5.422;2024-02-26T05:53:33;5.13;;;2.57;;
71963;SDS011;59834;52.124;5.422;2024-02-26T05:56:00;6.50;;;3.60;;
71963;SDS011;59834;52.124;5.422;2024-02-26T05:58:26;4.90;;;2.85;;
71963;SDS011;59834;52.124;5.422;2024-02-26T06:00:53;5.30;;;2.92;;
71963;SDS011;59834;52.124;5.422;2024-02-26T06:03:19;5.13;;;2.38;;
71963;SDS011;59834;52.124;5.422;2024-02-26T06:05:46;4.13;;;1.93;;
71963;SDS011;59834;52.124;5.422;2024-02-26T06:08:13;6.82;;;4.00;;
71963;SDS011;59834;52.124;5.422;2024-02-26T06:10:40;6.10;;;3.42;;
71963;SDS011;59834;52.124;5.422;2024-02-26T06:13:06;7.43;;;3.65;;
71963;SDS011;59834;52.124;5.422;2024-02-26T06:15:33;3.47;;;2.28;;
71963;SDS011;59834;52.124;5.422;2024-02-26T06:18:00;5.63;;;3.67;;
71963;SDS011;59834;52.124;5.422;2024-02-26T06:20:26;4.80;;;2.45;;
71963;SDS011;59834;52.124;5.422;2024-02-26T06:22:53;10.55;;;4.70;;
71963;SDS011;59834;52.124;5.422;2024-02-26T06:25:19;6.10;;;3.22;;
71963;SDS011;59834;52.124;5.422;2024-02-26T06:27:46;3.83;;;2.03;;
71963;SDS011;59834;52.124;5.422;2024-02-26T06:30:12;4.20;;;1.83;;
71963;SDS011;59834;52.124;5.422;2024-02-26T06:32:39;4.68;;;2.53;;
71963;SDS011;59834;52.124;5.422;2024-02-26T06:35:07;8.63;;;3.78;;
71963;SDS011;59834;52.124;5.422;2024-02-26T06:37:35;8.82;;;3.50;;
71963;SDS011;59834;52.124;5.422;2024-02-26T06:40:02;8.40;;;3.30;;
71963;SDS011;59834;52.124;5.422;2024-02-26T06:42:30;4.53;;;1.70;;
71963;SDS011;59834;52.124;5.422;2024-02-26T06:44:57;10.85;;;4.72;;
71963;SDS011;59834;52.124;5.422;2024-02-26T06:47:24;8.57;;;4.28;;
71963;SDS011;59834;52.124;5.422;2024-02-26T06:49:52;7.70;;;3.85;;
71963;SDS011;59834;52.124;5.422;2024-02-26T06:52:19;7.78;;;4.10;;
71963;SDS011;59834;52.124;5.422;2024-02-26T06:54:45;6.50;;;3.17;;
71963;SDS011;59834;52.124;5.422;2024-02-26T06:57:14;11.80;;;3.83;;
71963;SDS011;59834;52.124;5.422;2024-02-26T06:59:41;8.50;;;3.80;;
71963;SDS011;59834;52.124;5.422;2024-02-26T07:02:12;8.27;;;4.97;;
71963;SDS011;59834;52.124;5.422;2024-02-26T07:04:41;7.45;;;3.97;;
71963;SDS011;59834;52.124;5.422;2024-02-26T07:07:08;7.30;;;3.50;;
71963;SDS011;59834;52.124;5.422;2024-02-26T07:09:35;6.93;;;4.07;;
71963;SDS011;59834;52.124;5.422;2024-02-26T07:12:01;10.38;;;5.82;;
71963;SDS011;59834;52.124;5.422;2024-02-26T07:14:28;10.63;;;4.90;;
71963;SDS011;59834;52.124;5.422;2024-02-26T07:16:55;9.85;;;4.78;;
71963;SDS011;59834;52.124;5.422;2024-02-26T07:19:22;12.83;;;5.50;;
71963;SDS011;59834;52.124;5.422;2024-02-26T07:21:49;11.55;;;6.22;;
71963;SDS011;59834;52.124;5.422;2024-02-26T07:24:16;9.52;;;4.28;;
71963;SDS011;59834;52.124;5.422;2024-02-26T07:26:43;9.23;;;4.65;;
71963;SDS011;59834;52.124;5.422;2024-02-26T07:29:09;13.05;;;5.63;;
71963;SDS011;59834;52.124;5.422;2024-02-26T07:31:36;11.67;;;6.03;;
71963;SDS011;59834;52.124;5.422;2024-02-26T07:34:03;13.25;;;6.53;;
71963;SDS011;59834;52.124;5.422;2024-02-26T07:36:30;12.27;;;6.82;;
71963;SDS011;59834;52.124;5.422;2024-02-26T07:38:56;10.27;;;5.30;;
71963;SDS011;59834;52.124;5.422;2024-02-26T07:41:23;14.77;;;6.70;;
71963;SDS011;59834;52.124;5.422;2024-02-26T07:43:50;10.17;;;5.80;;
71963;SDS011;59834;52.124;5.422;2024-02-26T07:46:17;9.30;;;5.28;;
71963;SDS011;59834;52.124;5.422;2024-02-26T07:48:44;12.30;;;7.22;;
71963;SDS011;59834;52.124;5.422;2024-02-26T07:51:14;13.75;;;6.57;;
71963;SDS011;59834;52.124;5.422;2024-02-26T07:53:40;9.27;;;4.80;;
71963;SDS011;59834;52.124;5.422;2024-02-26T07:56:08;14.47;;;7.83;;
71963;SDS011;59834;52.124;5.422;2024-02-26T07:58:35;12.13;;;6.10;;
71963;SDS011;59834;52.124;5.422;2024-02-26T08:01:01;7.70;;;5.05;;
71963;SDS011;59834;52.124;5.422;2024-02-26T08:03:28;15.73;;;7.63;;
71963;SDS011;59834;52.124;5.422;2024-02-26T08:05:55;10.75;;;6.70;;
71963;SDS011;59834;52.124;5.422;2024-02-26T08:08:23;15.63;;;8.10;;
71963;SDS011;59834;52.124;5.422;2024-02-26T08:10:50;13.52;;;6.07;;
71963;SDS011;59834;52.124;5.422;2024-02-26T08:13:16;15.95;;;8.13;;
71963;SDS011;59834;52.124;5.422;2024-02-26T08:15:43;14.13;;;6.65;;
71963;SDS011;59834;52.124;5.422;2024-02-26T08:18:09;11.75;;;7.10;;
71963;SDS011;59834;52.124;5.422;2024-02-26T08:20:36;8.90;;;4.93;;
71963;SDS011;59834;52.124;5.422;2024-02-26T08:23:03;12.25;;;5.80;;
71963;SDS011;59834;52.124;5.422;2024-02-26T08:25:30;8.60;;;5.13;;
71963;SDS011;59834;52.124;5.422;2024-02-26T08:27:57;10.63;;;5.78;;
71963;SDS011;59834;52.124;5.422;2024-02-26T08:30:24;7.95;;;5.07;;
71963;SDS011;59834;52.124;5.422;2024-02-26T08:32:51;7.83;;;4.40;;
71963;SDS011;59834;52.124;5.422;2024-02-26T08:35:19;5.10;;;3.15;;
71963;SDS011;59834;52.124;5.422;2024-02-26T08:37:46;10.75;;;4.80;;
71963;SDS011;59834;52.124;5.422;2024-02-26T08:40:14;8.60;;;3.83;;
71963;SDS011;59834;52.124;5.422;2024-02-26T08:42:41;7.63;;;3.83;;
71963;SDS011;59834;52.124;5.422;2024-02-26T08:45:08;8.83;;;3.97;;
71963;SDS011;59834;52.124;5.422;2024-02-26T08:47:35;5.88;;;3.45;;
71963;SDS011;59834;52.124;5.422;2024-02-26T08:50:02;5.72;;;3.42;;
71963;SDS011;59834;52.124;5.422;2024-02-26T08:52:29;5.40;;;3.50;;
71963;SDS011;59834;52.124;5.422;2024-02-26T08:54:56;9.25;;;4.25;;
71963;SDS011;59834;52.124;5.422;2024-02-26T08:57:24;8.17;;;4.00;;
71963;SDS011;59834;52.124;5.422;2024-02-26T08:59:53;6.18;;;3.20;;
71963;SDS011;59834;52.124;5.422;2024-02-26T09:02:20;7.50;;;4.35;;
71963;SDS011;59834;52.124;5.422;2024-02-26T09:04:47;7.65;;;3.80;;
71963;SDS011;59834;52.124;5.422;2024-02-26T09:07:13;5.65;;;3.88;;
71963;SDS011;59834;52.124;5.422;2024-02-26T09:09:40;7.87;;;4.13;;
71963;SDS011;59834;52.124;5.422;2024-02-26T09:12:07;9.57;;;3.25;;
71963;SDS011;59834;52.124;5.422;2024-02-26T09:14:34;5.88;;;3.40;;
71963;SDS011;59834;52.124;5.422;2024-02-26T09:17:00;7.75;;;3.15;;
71963;SDS011;59834;52.124;5.422;2024-02-26T09:19:27;4.25;;;2.78;;
71963;SDS011;59834;52.124;5.422;2024-02-26T09:21:54;6.33;;;4.10;;
71963;SDS011;59834;52.124;5.422;2024-02-26T09:24:24;5.70;;;2.83;;
71963;SDS011;59834;52.124;5.422;2024-02-26T09:26:51;6.13;;;3.38;;
71963;SDS011;59834;52.124;5.422;2024-02-26T09:29:18;6.15;;;3.50;;
71963;SDS011;59834;52.124;5.422;2024-02-26T09:31:44;9.32;;;4.25;;
71963;SDS011;59834;52.124;5.422;2024-02-26T09:34:13;10.37;;;3.80;;
71963;SDS011;59834;52.124;5.422;2024-02-26T09:36:40;3.97;;;2.38;;
71963;SDS011;59834;52.124;5.422;2024-02-26T09:39:07;3.53;;;2.10;;
71963;SDS011;59834;52.124;5.422;2024-02-26T09:41:38;5.60;;;3.00;;
71963;SDS011;59834;52.124;5.422;2024-02-26T09:44:05;7.00;;;3.00;;
71963;SDS011;59834;52.124;5.422;2024-02-26T09:46:32;3.43;;;2.00;;
71963;SDS011;59834;52.124;5.422;2024-02-26T09:48:59;4.32;;;2.85;;
71963;SDS011;59834;52.124;5.422;2024-02-26T09:51:27;4.45;;;2.33;;
71963;SDS011;59834;52.124;5.422;2024-02-26T09:53:55;6.13;;;1.55;;
71963;SDS011;59834;52.124;5.422;2024-02-26T09:56:26;5.60;;;2.53;;
71963;SDS011;59834;52.124;5.422;2024-02-26T09:58:52;5.63;;;3.20;;
71963;SDS011;59834;52.124;5.422;2024-02-26T10:01:21;3.70;;;2.00;;
71963;SDS011;59834;52.124;5.422;2024-02-26T10:03:49;4.25;;;2.80;;
71963;SDS011;59834;52.124;5.422;2024-02-26T10:06:21;4.00;;;2.47;;
71963;SDS011;59834;52.124;5.422;2024-02-26T10:08:48;4.35;;;1.83;;
71963;SDS011;59834;52.124;5.422;2024-02-26T10:11:15;2.50;;;1.30;;
71963;SDS011;59834;52.124;5.422;2024-02-26T10:13:43;3.50;;;1.85;;
71963;SDS011;59834;52.124;5.422;2024-02-26T10:16:09;4.10;;;2.05;;
71963;SDS011;59834;52.124;5.422;2024-02-26T10:18:46;5.18;;;1.80;;
71963;SDS011;59834;52.124;5.422;2024-02-26T10:21:25;4.10;;;1.83;;
71963;SDS011;59834;52.124;5.422;2024-02-26T10:23:51;4.20;;;2.20;;
71963;SDS011;59834;52.124;5.422;2024-02-26T10:26:18;3.95;;;2.28;;
71963;SDS011;59834;52.124;5.422;2024-02-26T10:28:45;4.45;;;1.98;;
71963;SDS011;59834;52.124;5.422;2024-02-26T10:31:16;5.22;;;1.83;;
71963;SDS011;59834;52.124;5.422;2024-02-26T10:33:43;4.22;;;2.00;;
71963;SDS011;59834;52.124;5.422;2024-02-26T10:36:11;3.67;;;1.83;;
71963;SDS011;59834;52.124;5.422;2024-02-26T10:38:38;3.42;;;1.95;;
71963;SDS011;59834;52.124;5.422;2024-02-26T10:41:08;4.57;;;2.20;;
71963;SDS011;59834;52.124;5.422;2024-02-26T10:43:41;3.58;;;2.15;;
71963;SDS011;59834;52.124;5.422;2024-02-26T10:46:08;3.08;;;1.17;;
71963;SDS011;59834;52.124;5.422;2024-02-26T10:48:36;2.83;;;1.63;;
71963;SDS011;59834;52.124;5.422;2024-02-26T10:51:03;3.92;;;2.03;;
71963;SDS011;59834;52.124;5.422;2024-02-26T10:53:30;3.25;;;1.40;;
71963;SDS011;59834;52.124;5.422;2024-02-26T10:56:00;3.45;;;1.65;;
71963;SDS011;59834;52.124;5.422;2024-02-26T10:58:29;4.95;;;2.05;;
71963;SDS011;59834;52.124;5.422;2024-02-26T11:00:57;7.93;;;2.50;;
71963;SDS011;59834;52.124;5.422;2024-02-26T11:03:26;3.65;;;2.30;;
71963;SDS011;59834;52.124;5.422;2024-02-26T11:05:54;3.25;;;1.55;;
71963;SDS011;59834;52.124;5.422;2024-02-26T11:08:24;3.80;;;1.58;;
71963;SDS011;59834;52.124;5.422;2024-02-26T11:10:54;2.10;;;1.10;;
71963;SDS011;59834;52.124;5.422;2024-02-26T11:13:23;3.30;;;1.40;;
71963;SDS011;59834;52.124;5.422;2024-02-26T11:15:56;5.22;;;2.38;;
71963;SDS011;59834;52.124;5.422;2024-02-26T11:18:26;4.05;;;2.47;;
71963;SDS011;59834;52.124;5.422;2024-02-26T11:20:54;8.43;;;2.53;;
71963;SDS011;59834;52.124;5.422;2024-02-26T11:23:23;3.28;;;1.98;;
71963;SDS011;59834;52.124;5.422;2024-02-26T11:25:50;5.17;;;2.40;;
71963;SDS011;59834;52.124;5.422;2024-02-26T11:28:20;3.17;;;1.90;;
71963;SDS011;59834;52.124;5.422;2024-02-26T11:30:51;3.67;;;1.38;;
71963;SDS011;59834;52.124;5.422;2024-02-26T11:33:20;4.07;;;2.30;;
71963;SDS011;59834;52.124;5.422;2024-02-26T11:35:47;3.55;;;1.77;;
71963;SDS011;59834;52.124;5.422;2024-02-26T11:38:24;4.70;;;2.80;;
71963;SDS011;59834;52.124;5.422;2024-02-26T11:40:53;4.00;;;1.58;;
71963;SDS011;59834;52.124;5.422;2024-02-26T11:43:23;5.80;;;2.67;;
71963;SDS011;59834;52.124;5.422;2024-02-26T11:46:24;3.40;;;1.73;;
71963;SDS011;59834;52.124;5.422;2024-02-26T11:48:54;2.90;;;1.67;;
71963;SDS011;59834;52.124;5.422;2024-02-26T11:51:26;4.73;;;1.47;;
71963;SDS011;59834;52.124;5.422;2024-02-26T11:53:54;6.07;;;2.60;;
71963;SDS011;59834;52.124;5.422;2024-02-26T11:56:24;5.00;;;2.00;;
71963;SDS011;59834;52.124;5.422;2024-02-26T11:58:58;4.53;;;2.42;;
71963;SDS011;59834;52.124;5.422;2024-02-26T12:01:35;3.45;;;2.00;;
71963;SDS011;59834;52.124;5.422;2024-02-26T12:07:08;4.88;;;1.98;;
71963;SDS011;59834;52.124;5.422;2024-02-26T12:09:32;3.67;;;1.75;;
71963;SDS011;59834;52.124;5.422;2024-02-26T12:12:05;3.63;;;1.63;;
71963;SDS011;59834;52.124;5.422;2024-02-26T12:14:37;3.40;;;1.73;;
71963;SDS011;59834;52.124;5.422;2024-02-26T12:17:23;6.37;;;2.57;;
71963;SDS011;59834;52.124;5.422;2024-02-26T12:19:51;4.18;;;2.15;;
71963;SDS011;59834;52.124;5.422;2024-02-26T12:22:20;4.30;;;2.30;;
71963;SDS011;59834;52.124;5.422;2024-02-26T12:24:47;3.83;;;2.65;;
71963;SDS011;59834;52.124;5.422;2024-02-26T12:27:13;5.53;;;1.90;;
71963;SDS011;59834;52.124;5.422;2024-02-26T12:29:41;3.80;;;1.97;;
71963;SDS011;59834;52.124;5.422;2024-02-26T12:32:08;3.47;;;1.85;;
71963;SDS011;59834;52.124;5.422;2024-02-26T12:34:34;3.10;;;1.90;;
71963;SDS011;59834;52.124;5.422;2024-02-26T12:37:01;5.07;;;2.30;;
71963;SDS011;59834;52.124;5.422;2024-02-26T12:39:28;5.80;;;2.38;;
71963;SDS011;59834;52.124;5.422;2024-02-26T12:41:57;3.97;;;1.73;;
71963;SDS011;59834;52.124;5.422;2024-02-26T12:44:26;2.40;;;1.20;;
71963;SDS011;59834;52.124;5.422;2024-02-26T12:47:02;5.30;;;2.53;;
71963;SDS011;59834;52.124;5.422;2024-02-26T12:49:30;4.15;;;2.38;;
71963;SDS011;59834;52.124;5.422;2024-02-26T12:51:57;4.43;;;2.38;;
71963;SDS011;59834;52.124;5.422;2024-02-26T12:54:28;2.47;;;1.63;;
71963;SDS011;59834;52.124;5.422;2024-02-26T12:57:00;4.43;;;1.77;;
71963;SDS011;59834;52.124;5.422;2024-02-26T12:59:29;3.38;;;1.52;;
71963;SDS011;59834;52.124;5.422;2024-02-26T13:01:56;2.83;;;1.45;;
71963;SDS011;59834;52.124;5.422;2024-02-26T13:04:24;3.70;;;1.73;;
71963;SDS011;59834;52.124;5.422;2024-02-26T13:06:52;4.93;;;2.50;;
71963;SDS011;59834;52.124;5.422;2024-02-26T13:09:19;4.90;;;2.33;;
71963;SDS011;59834;52.124;5.422;2024-02-26T13:11:55;4.32;;;2.17;;
71963;SDS011;59834;52.124;5.422;2024-02-26T13:14:22;4.15;;;2.33;;
71963;SDS011;59834;52.124;5.422;2024-02-26T13:16:55;9.38;;;2.88;;
71963;SDS011;59834;52.124;5.422;2024-02-26T13:19:22;5.47;;;2.00;;
71963;SDS011;59834;52.124;5.422;2024-02-26T13:21:49;2.80;;;1.52;;
71963;SDS011;59834;52.124;5.422;2024-02-26T13:24:16;3.92;;;2.13;;
71963;SDS011;59834;52.124;5.422;2024-02-26T13:26:44;4.13;;;2.22;;
71963;SDS011;59834;52.124;5.422;2024-02-26T13:29:20;3.45;;;1.10;;
71963;SDS011;59834;52.124;5.422;2024-02-26T13:31:47;3.67;;;1.80;;
71963;SDS011;59834;52.124;5.422;2024-02-26T13:34:23;4.75;;;2.22;;
71963;SDS011;59834;52.124;5.422;2024-02-26T13:36:54;5.55;;;2.28;;
71963;SDS011;59834;52.124;5.422;2024-02-26T13:39:22;2.63;;;1.27;;
71963;SDS011;59834;52.124;5.422;2024-02-26T13:41:50;5.97;;;2.25;;
71963;SDS011;59834;52.124;5.422;2024-02-26T13:44:21;4.80;;;2.53;;
71963;SDS011;59834;52.124;5.422;2024-02-26T13:46:48;3.90;;;1.90;;
71963;SDS011;59834;52.124;5.422;2024-02-26T13:49:15;2.13;;;1.13;;
71963;SDS011;59834;52.124;5.422;2024-02-26T13:51:43;3.08;;;1.98;;
71963;SDS011;59834;52.124;5.422;2024-02-26T13:54:09;3.08;;;2.10;;
71963;SDS011;59834;52.124;5.422;2024-02-26T13:56:37;4.33;;;2.67;;
71963;SDS011;59834;52.124;5.422;2024-02-26T13:59:04;3.03;;;1.55;;
71963;SDS011;59834;52.124;5.422;2024-02-26T14:01:30;4.70;;;1.60;;
71963;SDS011;59834;52.124;5.422;2024-02-26T14:03:59;3.58;;;1.10;;
71963;SDS011;59834;52.124;5.422;2024-02-26T14:06:28;3.22;;;1.92;;
71963;SDS011;59834;52.124;5.422;2024-02-26T14:08:55;2.90;;;1.33;;
71963;SDS011;59834;52.124;5.422;2024-02-26T14:11:22;3.03;;;1.77;;
71963;SDS011;59834;52.124;5.422;2024-02-26T14:13:49;3.10;;;1.35;;
71963;SDS011;59834;52.124;5.422;2024-02-26T14:16:16;4.25;;;1.65;;
71963;SDS011;59834;52.124;5.422;2024-02-26T14:18:43;3.13;;;1.67;;
71963;SDS011;59834;52.124;5.422;2024-02-26T14:21:11;3.67;;;2.00;;
71963;SDS011;59834;52.124;5.422;2024-02-26T14:23:38;3.00;;;1.92;;
71963;SDS011;59834;52.124;5.422;2024-02-26T14:26:05;6.38;;;1.58;;
71963;SDS011;59834;52.124;5.422;2024-02-26T14:28:32;3.45;;;1.33;;
71963;SDS011;59834;52.124;5.422;2024-02-26T14:31:02;3.63;;;1.55;;
71963;SDS011;59834;52.124;5.422;2024-02-26T14:33:30;1.60;;;0.50;;
71963;SDS011;59834;52.124;5.422;2024-02-26T14:35:57;1.40;;;0.65;;
71963;SDS011;59834;52.124;5.422;2024-02-26T14:38:24;5.50;;;1.50;;
71963;SDS011;59834;52.124;5.422;2024-02-26T14:40:50;4.32;;;1.15;;
71963;SDS011;59834;52.124;5.422;2024-02-26T14:43:18;4.43;;;1.55;;
71963;SDS011;59834;52.124;5.422;2024-02-26T14:45:44;3.47;;;1.37;;
71963;SDS011;59834;52.124;5.422;2024-02-26T14:48:11;4.95;;;1.25;;
71963;SDS011;59834;52.124;5.422;2024-02-26T14:50:38;3.88;;;0.95;;